Time;durP1;ratioP1;P1;durP2;ratioP2;P2;SDS_P1;SDS_P2;PMS_P1;PMS_P2;Temp;Humidity;BMP_temperature;BMP_pressure;BME280_temperature;BME280_humidity;BME280_pressure;Samples;Min_cycle;Max_cycle;Signal;HPM_P1;HPM_P2
2021/10/23 00:00:52;;;;;;;;;;;;;;;21.54;54.01;99856.44;2092996;28;854;-59
2021/10/23 00:01:52;;;;;;;;;;;;;;;21.64;54.15;99859.53;2092518;28;1185;-60
2021/10/23 00:02:52;;;;;;;;;;;;;;;21.55;53.95;99856.34;2092542;28;1023;-60
2021/10/23 00:03:52;;;;;;;;;;;;;;;21.52;55.42;99861.88;2093085;28;861;-59
2021/10/23 00:04:52;;;;;;;;;;;;;;;21.48;56.21;99866.59;2093106;28;1015;-61
2021/10/23 00:05:52;;;;;;;;;;;;;;;21.50;56.18;99873.72;2092914;28;762;-60
2021/10/23 00:06:53;;;;;;;;;;;;;;;21.56;55.76;99873.41;2093092;28;916;-59
2021/10/23 00:07:53;;;;;;;;;;;;;;;21.55;55.46;99874.34;2093116;28;1039;-59
2021/10/23 00:08:53;;;;;;;;;;;;;;;21.51;55.90;99881.69;2093118;28;770;-60
2021/10/23 00:09:53;;;;;;;;;;;;;;;21.43;56.16;99879.41;2092269;28;1214;-60
2021/10/23 00:10:53;;;;;;;;;;;;;;;21.48;55.48;99888.13;2092429;28;855;-60
2021/10/23 00:11:53;;;;;;;;;;;;;;;21.42;56.61;99891.16;2092236;28;1269;-60
2021/10/23 00:12:54;;;;;;;;;;;;;;;21.45;55.83;99893.69;2092526;28;1023;-59
2021/10/23 00:13:54;;;;;;;;;;;;;;;21.61;55.75;99898.28;2092999;28;695;-60
2021/10/23 00:14:54;;;;;;;;;;;;;;;21.47;56.69;99893.63;2092823;28;901;-59
2021/10/23 00:15:54;;;;;;;;;;;;;;;21.47;56.60;99890.94;2093002;28;1047;-59
2021/10/23 00:16:54;;;;;;;;;;;;;;;21.40;56.75;99903.81;2093027;28;912;-59
2021/10/23 00:17:55;;;;;;;;;;;;;;;21.53;56.09;99905.88;2092943;28;968;-60
2021/10/23 00:18:55;;;;;;;;;;;;;;;21.55;55.92;99901.28;2093042;28;761;-60
2021/10/23 00:19:58;;;;;;;;;;;;;;;21.58;56.21;99914.59;2092007;28;1894;-59
2021/10/23 00:20:58;;;;;;;;;;;;;;;21.56;54.52;99911.97;2092481;28;809;-59
2021/10/23 00:21:58;;;;;;;;;;;;;;;21.61;54.68;99914.44;2092384;28;1236;-60
2021/10/23 00:22:58;;;;;;;;;;;;;;;21.61;55.67;99914.44;2092303;28;961;-60
2021/10/23 00:23:58;;;;;;;;;;;;;;;21.59;54.46;99919.03;2092986;28;980;-60
2021/10/23 00:25:00;;;;;;;;;;;;;;;21.59;55.33;99916.34;2092988;28;981;-60
2021/10/23 00:26:00;;;;;;;;;;;;;;;21.44;55.40;99918.88;2092729;28;889;-59
2021/10/23 00:27:00;;;;;;;;;;;;;;;21.53;55.54;99924.75;2092996;28;1067;-61
2021/10/23 00:28:00;;;;;;;;;;;;;;;21.45;55.41;99920.63;2092789;28;992;-59
2021/10/23 00:29:00;;;;;;;;;;;;;;;21.46;56.74;99929.59;2092912;28;905;-59
2021/10/23 00:30:01;;;;;;;;;;;;;;;21.44;55.90;99939.59;2092957;28;996;-60
2021/10/23 00:31:01;;;;;;;;;;;;;;;21.41;56.26;99934.34;2092953;28;767;-60
2021/10/23 00:32:01;;;;;;;;;;;;;;;21.38;55.63;99935.38;2092796;28;854;-60
2021/10/23 00:33:02;;;;;;;;;;;;;;;21.39;56.11;99936.25;2092844;28;715;-60
2021/10/23 00:34:02;;;;;;;;;;;;;;;21.36;56.75;99942.66;2092750;28;872;-59
2021/10/23 00:35:03;;;;;;;;;;;;;;;21.41;56.18;99945.97;2092926;28;1012;-62
2021/10/23 00:36:03;;;;;;;;;;;;;;;21.47;54.30;99944.81;2092720;28;1152;-60
2021/10/23 00:37:03;;;;;;;;;;;;;;;21.41;57.19;99951.38;2091659;28;1239;-59
2021/10/23 00:38:03;;;;;;;;;;;;;;;21.45;56.30;99952.09;2084657;28;921;-60
2021/10/23 00:39:04;;;;;;;;;;;;;;;21.41;55.97;99951.38;2084375;28;965;-59
2021/10/23 00:40:04;;;;;;;;;;;;;;;21.46;55.01;99948.47;2084456;28;1968;-60
2021/10/23 00:41:05;;;;;;;;;;;;;;;21.46;55.17;99953.84;2084618;28;760;-59
2021/10/23 00:42:05;;;;;;;;;;;;;;;21.43;56.02;99957.56;2084511;28;989;-59
2021/10/23 00:43:05;;;;;;;;;;;;;;;21.40;54.57;99960.41;2084576;28;715;-59
2021/10/23 00:44:05;;;;;;;;;;;;;;;21.39;56.23;99961.34;2084548;28;984;-59
2021/10/23 00:45:06;;;;;;;;;;;;;;;21.36;55.95;99974.97;2084433;28;1345;-60
2021/10/23 00:46:06;;;;;;;;;;;;;;;21.30;56.06;99980.66;2084581;28;874;-60
2021/10/23 00:47:07;;;;;;;;;;;;;;;21.28;56.05;99982.56;2084077;28;775;-60
2021/10/23 00:48:07;;;;;;;;;;;;;;;21.24;56.67;99989.06;2083990;28;1024;-60
2021/10/23 00:49:07;;;;;;;;;;;;;;;21.37;55.10;99973.16;2084545;28;961;-61
2021/10/23 00:50:08;;;;;;;;;;;;;;;21.39;55.38;99979.34;2084298;28;967;-59
2021/10/23 00:51:09;;;;;;;;;;;;;;;21.40;54.16;99976.56;2084579;28;831;-59
2021/10/23 00:52:10;;;;;;;;;;;;;;;21.45;55.66;99981.75;2084505;28;791;-60
2021/10/23 00:53:11;;;;;;;;;;;;;;;21.45;54.39;99985.28;2084096;28;985;-60
2021/10/23 00:54:12;;;;;;;;;;;;;;;21.36;56.53;99993.84;2084536;28;989;-60
2021/10/23 00:55:12;;;;;;;;;;;;;;;21.44;54.78;99988.06;2083966;28;1192;-59
2021/10/23 00:56:15;;;;;;;;;;;;;;;21.35;55.30;100002.88;2083763;28;1239;-59
2021/10/23 00:57:15;;;;;;;;;;;;;;;21.37;56.18;100005.50;2084501;28;874;-60
2021/10/23 00:58:16;;;;;;;;;;;;;;;21.39;53.11;100003.59;2084361;28;838;-59
2021/10/23 00:59:16;;;;;;;;;;;;;;;21.35;55.11;100004.69;2084377;28;1056;-59
2021/10/23 01:00:16;;;;;;;;;;;;;;;21.32;55.23;100011.09;2084376;28;1910;-60
2021/10/23 01:01:17;;;;;;;;;;;;;;;21.37;54.61;100014.44;2084066;28;827;-59
2021/10/23 01:02:17;;;;;;;;;;;;;;;21.32;55.09;100019.19;2084404;28;929;-59
2021/10/23 01:03:17;;;;;;;;;;;;;;;21.28;55.88;100023.84;2084438;28;1010;-60
2021/10/23 01:04:21;;;;;;;;;;;;;;;21.36;54.74;100028.00;2084422;28;783;-59
2021/10/23 01:05:21;;;;;;;;;;;;;;;21.40;54.57;100033.16;2084488;28;788;-61
2021/10/23 01:06:21;;;;;;;;;;;;;;;21.36;55.04;100036.94;2084219;28;1047;-60
2021/10/23 01:07:22;;;;;;;;;;;;;;;21.32;55.96;100038.03;2088825;28;1095;-59
2021/10/23 01:08:22;;;;;;;;;;;;;;;21.41;54.72;100034.88;2092566;28;776;-59
2021/10/23 01:09:22;;;;;;;;;;;;;;;21.42;54.59;100044.72;2091811;28;819;-60
2021/10/23 01:10:23;;;;;;;;;;;;;;;21.40;55.58;100037.69;2083623;28;1366;-60
2021/10/23 01:11:23;;;;;;;;;;;;;;;21.33;54.74;100050.56;2091998;28;1267;-60
2021/10/23 01:12:24;;;;;;;;;;;;;;;21.40;54.96;100051.16;2091911;28;890;-60
2021/10/23 01:13:25;;;;;;;;;;;;;;;21.50;53.79;100047.03;2091991;28;1044;-59
2021/10/23 01:14:25;;;;;;;;;;;;;;;21.45;53.37;100052.66;2091853;28;1227;-61
2021/10/23 01:15:29;;;;;;;;;;;;;;;21.53;53.85;100049.56;2091973;28;1175;-59
2021/10/23 01:16:29;;;;;;;;;;;;;;;21.38;55.63;100055.72;2099839;28;822;-59
2021/10/23 01:17:30;;;;;;;;;;;;;;;21.39;55.18;100061.03;2092490;28;811;-60
2021/10/23 01:18:30;;;;;;;;;;;;;;;21.29;54.14;100060.63;2092553;28;1069;-60
2021/10/23 01:19:31;;;;;;;;;;;;;;;21.26;55.57;100055.38;2092312;28;784;-60
2021/10/23 01:20:32;;;;;;;;;;;;;;;21.23;55.96;100063.59;2092329;28;1951;-60
2021/10/23 01:21:32;;;;;;;;;;;;;;;21.35;54.16;100064.81;2092655;28;811;-59
2021/10/23 01:22:32;;;;;;;;;;;;;;;21.32;55.02;100071.25;2091924;28;784;-59
2021/10/23 01:23:32;;;;;;;;;;;;;;;21.32;54.49;100073.94;2091921;28;922;-61
2021/10/23 01:24:32;;;;;;;;;;;;;;;21.27;55.20;100077.78;2092427;28;1187;-59
2021/10/23 01:25:34;;;;;;;;;;;;;;;21.31;54.91;100072.19;2092370;28;1009;-59
2021/10/23 01:26:35;;;;;;;;;;;;;;;21.41;54.58;100074.44;2092485;28;835;-60
2021/10/23 01:27:35;;;;;;;;;;;;;;;21.25;55.32;100080.56;2092324;28;1025;-60
2021/10/23 01:28:36;;;;;;;;;;;;;;;21.34;55.41;100079.25;2092489;28;921;-59
2021/10/23 01:29:36;;;;;;;;;;;;;;;21.35;55.10;100078.28;2092458;28;783;-60
2021/10/23 01:30:36;;;;;;;;;;;;;;;21.22;56.30;100080.72;2092412;28;862;-59
2021/10/23 01:31:36;;;;;;;;;;;;;;;21.20;56.07;100087.13;2092457;28;787;-60
2021/10/23 01:32:37;;;;;;;;;;;;;;;21.27;54.76;100084.06;2092310;28;885;-59
2021/10/23 01:33:37;;;;;;;;;;;;;;;;;;2092393;28;1155;-59
2021/10/23 01:34:37;;;;;;;;;;;;;;;21.23;54.20;100098.63;2092405;28;989;-60
2021/10/23 01:35:39;;;;;;;;;;;;;;;21.32;54.69;100102.69;2092242;28;993;-59
2021/10/23 01:36:48;;;;;;;;;;;;;;;21.31;54.80;100096.44;2092290;28;870;-60
2021/10/23 01:37:48;;;;;;;;;;;;;;;21.29;55.34;100098.34;2085037;28;1273;-59
2021/10/23 01:38:48;;;;;;;;;;;;;;;21.26;54.89;100098.47;2084170;28;841;-59
2021/10/23 01:39:48;;;;;;;;;;;;;;;21.29;55.30;100098.34;2084083;28;1976;-59
2021/10/23 01:40:49;;;;;;;;;;;;;;;21.36;54.21;100101.59;2084053;28;817;-60
2021/10/23 01:41:49;;;;;;;;;;;;;;;21.25;55.28;100110.19;2083927;28;801;-59
2021/10/23 01:42:49;;;;;;;;;;;;;;;21.26;56.39;100102.97;2084162;28;974;-60
2021/10/23 01:43:49;;;;;;;;;;;;;;;21.28;54.51;100111.84;2084062;28;1040;-59
2021/10/23 01:44:50;;;;;;;;;;;;;;;21.17;56.11;100115.97;2084033;28;847;-59
2021/10/23 01:45:50;;;;;;;;;;;;;;;21.20;55.41;100123.00;2084064;28;775;-60
2021/10/23 01:46:50;;;;;;;;;;;;;;;21.30;54.95;100121.63;2083829;28;962;-59
2021/10/23 01:47:50;;;;;;;;;;;;;;;21.29;54.93;100124.38;2084014;28;973;-59
2021/10/23 01:48:50;;;;;;;;;;;;;;;21.32;54.05;100126.94;2084073;28;981;-60
2021/10/23 01:49:50;;;;;;;;;;;;;;;21.20;55.12;100124.84;2083643;28;997;-59
2021/10/23 01:50:50;;;;;;;;;;;;;;;21.25;54.50;100133.56;2084066;28;765;-59
2021/10/23 01:51:51;;;;;;;;;;;;;;;21.13;56.90;100129.63;2084091;28;835;-60
2021/10/23 01:52:52;;;;;;;;;;;;;;;21.14;55.24;100136.75;2084125;28;1221;-59
2021/10/23 01:53:53;;;;;;;;;;;;;;;21.23;55.63;100140.81;2083980;28;886;-60
2021/10/23 01:54:53;;;;;;;;;;;;;;;21.22;55.76;100141.78;2083672;28;928;-60
2021/10/23 01:55:53;;;;;;;;;;;;;;;21.25;55.10;100149.72;2083722;28;1089;-59
2021/10/23 01:56:53;;;;;;;;;;;;;;;21.26;55.48;100146.06;2083996;28;870;-60
2021/10/23 01:57:55;;;;;;;;;;;;;;;21.20;55.64;100151.78;2084002;28;870;-59
2021/10/23 01:58:55;;;;;;;;;;;;;;;21.16;55.27;100151.91;2083965;28;882;-59
2021/10/23 01:59:55;;;;;;;;;;;;;;;21.16;56.34;100145.66;2084216;28;1983;-60
2021/10/23 02:00:55;;;;;;;;;;;;;;;21.24;55.81;100154.25;2092108;28;913;-59
2021/10/23 02:01:55;;;;;;;;;;;;;;;21.23;56.45;100155.19;2092180;28;894;-60
2021/10/23 02:02:56;;;;;;;;;;;;;;;21.28;55.78;100157.66;2092228;28;862;-59
2021/10/23 02:03:56;;;;;;;;;;;;;;;21.17;56.41;100164.44;2092092;28;1020;-59
2021/10/23 02:04:56;;;;;;;;;;;;;;;21.24;55.05;100158.75;2090463;28;1317;-60
2021/10/23 02:05:56;;;;;;;;;;;;;;;21.26;54.25;100167.63;2083821;28;779;-59
2021/10/23 02:06:56;;;;;;;;;;;;;;;21.27;55.17;100172.06;2083212;28;922;-60
2021/10/23 02:07:56;;;;;;;;;;;;;;;21.14;55.42;100166.38;2083343;28;1040;-60
2021/10/23 02:08:56;;;;;;;;;;;;;;;21.07;55.85;100168.50;2083847;28;855;-59
2021/10/23 02:09:57;;;;;;;;;;;;;;;21.07;56.38;100173.88;2083823;28;970;-59
2021/10/23 02:10:57;;;;;;;;;;;;;;;21.24;55.05;100173.09;2083697;28;823;-59
2021/10/23 02:11:57;;;;;;;;;;;;;;;21.16;55.13;100176.16;2083860;28;925;-59
2021/10/23 02:12:58;;;;;;;;;;;;;;;21.16;56.46;100178.84;2083197;28;1278;-59
2021/10/23 02:13:58;;;;;;;;;;;;;;;21.13;55.35;100178.09;2083318;28;949;-59
2021/10/23 02:14:58;;;;;;;;;;;;;;;21.08;55.70;100186.41;2083197;28;1075;-59
2021/10/23 02:15:58;;;;;;;;;;;;;;;21.10;56.02;100183.63;2083253;28;870;-60
2021/10/23 02:16:59;;;;;;;;;;;;;;;21.22;55.51;100180.38;2083867;28;842;-59
2021/10/23 02:17:59;;;;;;;;;;;;;;;21.09;55.69;100192.66;2083649;28;1048;-59
2021/10/23 02:18:59;;;;;;;;;;;;;;;21.11;54.47;100190.75;2083183;28;855;-61
2021/10/23 02:20:00;;;;;;;;;;;;;;;21.17;54.76;100198.56;2083720;28;1955;-59
2021/10/23 02:21:00;;;;;;;;;;;;;;;21.17;55.80;100202.16;2083888;28;811;-59
2021/10/23 02:22:00;;;;;;;;;;;;;;;21.17;55.21;100198.56;2083124;28;1660;-59
2021/10/23 02:23:01;;;;;;;;;;;;;;;21.14;55.41;100202.28;2083187;28;1025;-60
2021/10/23 02:24:01;;;;;;;;;;;;;;;21.13;55.98;100200.53;2083736;28;843;-61
2021/10/23 02:25:02;;;;;;;;;;;;;;;21.12;55.22;100197.91;2083490;28;730;-59
2021/10/23 02:26:02;;;;;;;;;;;;;;;21.15;55.16;100198.66;2083667;28;993;-59
2021/10/23 02:27:02;;;;;;;;;;;;;;;21.17;54.91;100204.84;2083730;28;878;-60
2021/10/23 02:28:02;;;;;;;;;;;;;;;21.11;55.56;100210.50;2083112;28;1473;-59
2021/10/23 02:29:02;;;;;;;;;;;;;;;;;;2083122;28;976;-59
2021/10/23 02:30:05;;;;;;;;;;;;;;;21.11;55.71;100215.91;2083787;28;827;-60
2021/10/23 02:31:06;;;;;;;;;;;;;;;21.22;54.84;100212.69;2083051;28;1207;-59
2021/10/23 02:32:06;;;;;;;;;;;;;;;21.30;54.42;100226.69;2083202;28;922;-60
2021/10/23 02:33:06;;;;;;;;;;;;;;;21.15;55.84;100219.31;2083701;28;928;-60
2021/10/23 02:34:07;;;;;;;;;;;;;;;21.15;56.06;100225.59;2083712;28;795;-59
2021/10/23 02:35:07;;;;;;;;;;;;;;;21.18;54.41;100219.16;2083364;28;850;-59
2021/10/23 02:36:07;;;;;;;;;;;;;;;21.17;55.92;100220.13;2083751;28;867;-60
2021/10/23 02:37:08;;;;;;;;;;;;;;;21.13;56.06;100221.19;2083558;28;1162;-60
2021/10/23 02:38:10;;;;;;;;;;;;;;;21.15;55.57;100224.69;2083393;28;687;-60
2021/10/23 02:39:10;;;;;;;;;;;;;;;21.12;55.51;100231.09;2083704;28;1052;-59
2021/10/23 02:40:11;;;;;;;;;;;;;;;21.13;54.76;100231.97;2083481;28;1965;-59
2021/10/23 02:41:11;;;;;;;;;;;;;;;21.09;54.79;100236.63;2083676;28;815;-60
2021/10/23 02:42:11;;;;;;;;;;;;;;;;;;2083574;28;921;-59
2021/10/23 02:43:12;;;;;;;;;;;;;;;21.12;54.78;100249.97;2083398;28;746;-59
2021/10/23 02:44:12;;;;;;;;;;;;;;;21.17;54.81;100250.63;2083610;28;779;-59
2021/10/23 02:45:12;;;;;;;;;;;;;;;21.22;54.92;100249.50;2083672;28;863;-60
2021/10/23 02:46:13;;;;;;;;;;;;;;;21.13;54.72;100257.09;2083467;28;807;-60
2021/10/23 02:47:13;;;;;;;;;;;;;;;21.08;55.86;100253.72;2099365;28;910;-60
2021/10/23 02:48:14;;;;;;;;;;;;;;;21.08;55.20;100266.31;2099516;28;791;-59
2021/10/23 02:49:14;;;;;;;;;;;;;;;21.17;55.79;100266.78;2083638;28;851;-60
2021/10/23 02:50:14;;;;;;;;;;;;;;;21.14;55.42;100261.53;2083502;28;847;-60
2021/10/23 02:51:15;;;;;;;;;;;;;;;21.09;54.76;100268.94;2083552;28;783;-59
2021/10/23 02:52:15;;;;;;;;;;;;;;;21.06;55.42;100266.38;2083486;28;790;-60
2021/10/23 02:53:15;;;;;;;;;;;;;;;21.00;55.39;100274.75;2083663;28;886;-59
2021/10/23 02:54:15;;;;;;;;;;;;;;;21.06;55.42;100273.56;2099317;28;1585;-60
2021/10/23 02:55:16;;;;;;;;;;;;;;;21.12;55.77;100274.19;2099406;28;869;-60
2021/10/23 02:56:17;;;;;;;;;;;;;;;21.08;56.23;100271.69;2083384;28;1071;-59
2021/10/23 02:57:17;;;;;;;;;;;;;;;21.08;56.64;100288.75;2083395;28;863;-59
2021/10/23 02:58:17;;;;;;;;;;;;;;;21.12;55.28;100281.38;2083501;28;820;-60
2021/10/23 02:59:18;;;;;;;;;;;;;;;21.09;55.31;100278.81;2083507;28;1474;-60
2021/10/23 03:00:18;;;;;;;;;;;;;;;21.14;55.95;100285.78;2083337;28;1981;-60
2021/10/23 03:01:18;;;;;;;;;;;;;;;21.10;55.45;100281.47;2083536;28;945;-59
2021/10/23 03:02:19;;;;;;;;;;;;;;;21.09;56.00;100285.09;2083494;28;808;-61
2021/10/23 03:03:19;;;;;;;;;;;;;;;21.12;55.08;100284.97;2083483;28;819;-60
2021/10/23 03:04:19;;;;;;;;;;;;;;;21.12;55.26;100284.97;2083474;28;819;-59
2021/10/23 03:05:20;;;;;;;;;;;;;;;21.02;56.68;100294.41;2083324;28;886;-59
2021/10/23 03:06:20;;;;;;;;;;;;;;;21.07;54.31;100296.88;2083303;28;804;-60
2021/10/23 03:07:20;;;;;;;;;;;;;;;21.10;55.75;100299.44;2083418;28;835;-60
2021/10/23 03:08:21;;;;;;;;;;;;;;;21.09;55.10;100295.88;2083454;28;1193;-60
2021/10/23 03:09:22;;;;;;;;;;;;;;;21.09;55.90;100309.34;2083466;28;918;-60
2021/10/23 03:10:22;;;;;;;;;;;;;;;21.10;55.77;100311.09;2083449;28;811;-59
2021/10/23 03:11:22;;;;;;;;;;;;;;;21.03;56.64;100309.59;2083172;28;1177;-60
2021/10/23 03:12:23;;;;;;;;;;;;;;;21.09;55.36;100314.72;2083352;28;985;-59
2021/10/23 03:13:23;;;;;;;;;;;;;;;20.99;55.54;100316.94;2083386;28;767;-59
2021/10/23 03:14:23;;;;;;;;;;;;;;;21.00;55.02;100313.28;2083104;28;1079;-60
2021/10/23 03:15:23;;;;;;;;;;;;;;;20.96;55.74;100316.19;2083283;28;970;-60
2021/10/23 03:16:24;;;;;;;;;;;;;;;21.03;57.41;100315.00;2083358;28;851;-59
2021/10/23 03:17:24;;;;;;;;;;;;;;;21.11;55.75;100329.00;2083447;28;1264;-60
2021/10/23 03:18:24;;;;;;;;;;;;;;;21.07;55.36;100319.31;2083404;28;1033;-59
2021/10/23 03:19:24;;;;;;;;;;;;;;;21.11;54.96;100328.09;2083279;28;842;-59
2021/10/23 03:20:24;;;;;;;;;;;;;;;21.05;55.21;100326.56;2083249;28;1894;-59
2021/10/23 03:21:25;;;;;;;;;;;;;;;21.00;56.45;100334.84;2083357;28;796;-59
2021/10/23 03:22:25;;;;;;;;;;;;;;;21.02;55.49;100330.25;2083356;28;1124;-60
2021/10/23 03:23:25;;;;;;;;;;;;;;;21.06;56.45;100339.09;2083372;28;1012;-59
2021/10/23 03:24:25;;;;;;;;;;;;;;;21.01;56.04;100347.34;2083215;28;803;-60
2021/10/23 03:25:26;;;;;;;;;;;;;;;21.09;54.80;100340.75;2083135;28;812;-60
2021/10/23 03:26:26;;;;;;;;;;;;;;;21.08;54.88;100339.91;2083308;28;1334;-59
2021/10/23 03:27:26;;;;;;;;;;;;;;;21.06;54.91;100344.47;2083253;28;993;-59
2021/10/23 03:28:26;;;;;;;;;;;;;;;21.10;55.20;100347.91;2083456;28;823;-60
2021/10/23 03:29:26;;;;;;;;;;;;;;;21.07;55.77;100351.63;2083325;28;1030;-59
2021/10/23 03:30:26;;;;;;;;;;;;;;;21.07;55.55;100351.63;2082391;28;983;-59
2021/10/23 03:31:27;;;;;;;;;;;;;;;21.12;54.65;100351.41;2083263;28;978;-59
2021/10/23 03:32:27;;;;;;;;;;;;;;;21.07;54.84;100350.72;2083167;28;1414;-59
2021/10/23 03:33:27;;;;;;;;;;;;;;;20.99;56.28;100353.75;2083303;28;866;-60
2021/10/23 03:34:27;;;;;;;;;;;;;;;20.98;55.29;100360.94;2083281;28;863;-60
2021/10/23 03:35:28;;;;;;;;;;;;;;;21.02;54.56;100364.41;2083096;28;725;-59
2021/10/23 03:36:28;;;;;;;;;;;;;;;21.04;55.76;100365.22;2083298;28;846;-60
2021/10/23 03:37:32;;;;;;;;;;;;;;;21.00;56.63;100367.16;2087730;28;1234;-60
2021/10/23 03:38:33;;;;;;;;;;;;;;;20.99;54.94;100376.16;2091320;28;851;-59
2021/10/23 03:39:33;;;;;;;;;;;;;;;20.96;55.34;100376.28;2091545;28;976;-59
2021/10/23 03:40:33;;;;;;;;;;;;;;;20.99;54.11;100378.84;2091527;28;1948;-59
2021/10/23 03:41:35;;;;;;;;;;;;;;;20.98;55.28;100387.00;2091120;28;835;-61
2021/10/23 03:42:35;;;;;;;;;;;;;;;20.97;55.78;100378.03;2099148;28;1474;-60
2021/10/23 03:43:35;;;;;;;;;;;;;;;21.00;54.39;100387.81;2099200;28;980;-59
2021/10/23 03:44:35;;;;;;;;;;;;;;;20.98;55.21;100389.72;2090986;28;1393;-60
2021/10/23 03:45:35;;;;;;;;;;;;;;;21.04;55.66;100392.16;2090911;28;791;-59
2021/10/23 03:46:35;;;;;;;;;;;;;;;21.06;54.71;100398.34;2091279;28;749;-60
2021/10/23 03:47:36;;;;;;;;;;;;;;;21.02;54.91;100388.63;2091446;28;1029;-60
2021/10/23 03:48:36;;;;;;;;;;;;;;;20.95;55.66;100404.16;2091545;28;814;-59
2021/10/23 03:49:36;;;;;;;;;;;;;;;20.99;56.71;100404.94;2091467;28;1030;-59
2021/10/23 03:50:36;;;;;;;;;;;;;;;21.03;54.99;100407.41;2091435;28;778;-60
2021/10/23 03:51:36;;;;;;;;;;;;;;;21.03;55.90;100410.09;2091395;28;795;-59
2021/10/23 03:52:37;;;;;;;;;;;;;;;21.02;55.52;100408.34;2091354;28;976;-59
2021/10/23 03:53:37;;;;;;;;;;;;;;;21.05;55.74;100414.53;2091514;28;825;-60
2021/10/23 03:54:37;;;;;;;;;;;;;;;21.03;54.94;100412.78;2091503;28;813;-59
2021/10/23 03:55:38;;;;;;;;;;;;;;;21.13;54.77;100410.63;2091407;28;846;-60
2021/10/23 03:56:38;;;;;;;;;;;;;;;21.02;56.20;100418.25;2091320;28;1074;-60
2021/10/23 03:57:38;;;;;;;;;;;;;;;21.07;55.82;100426.13;2091164;28;792;-59
2021/10/23 03:58:38;;;;;;;;;;;;;;;21.14;54.78;100431.22;2091418;28;941;-62
2021/10/23 03:59:39;;;;;;;;;;;;;;;21.12;54.57;100432.22;2091431;28;894;-60
2021/10/23 04:00:39;;;;;;;;;;;;;;;21.10;54.66;100432.28;2091420;28;1981;-60
2021/10/23 04:01:39;;;;;;;;;;;;;;;21.02;55.98;100431.72;2091512;28;1100;-60
2021/10/23 04:02:39;;;;;;;;;;;;;;;21.06;55.50;100432.47;2091280;28;788;-59
2021/10/23 04:03:39;;;;;;;;;;;;;;;21.06;55.36;100446.81;2091341;28;977;-60
2021/10/23 04:04:39;;;;;;;;;;;;;;;21.86;52.93;100436.22;2091407;28;965;-60
2021/10/23 04:05:40;;;;;;;;;;;;;;;22.33;52.73;100449.38;2091220;28;854;-59
2021/10/23 04:06:40;;;;;;;;;;;;;;;22.44;52.24;100448.00;2091353;28;898;-59
2021/10/23 04:07:40;;;;;;;;;;;;;;;22.53;52.25;100452.09;2091275;28;977;-59
2021/10/23 04:08:40;;;;;;;;;;;;;;;22.64;52.12;100457.84;2091163;28;814;-60
2021/10/23 04:09:40;;;;;;;;;;;;;;;22.71;51.15;100451.19;2091388;28;772;-59
2021/10/23 04:10:41;;;;;;;;;;;;;;;22.76;50.44;100454.53;2091267;28;857;-59
2021/10/23 04:11:41;;;;;;;;;;;;;;;22.83;52.40;100448.84;2091077;28;922;-60
2021/10/23 04:12:41;;;;;;;;;;;;;;;22.86;51.53;100456.78;2091334;28;837;-61
2021/10/23 04:13:41;;;;;;;;;;;;;;;22.99;49.51;100462.44;2091328;28;890;-59
2021/10/23 04:14:41;;;;;;;;;;;;;;;22.98;52.29;100458.91;2091434;28;846;-59
2021/10/23 04:15:42;;;;;;;;;;;;;;;23.02;52.21;100465.91;2091302;28;819;-60
2021/10/23 04:16:42;;;;;;;;;;;;;;;23.10;49.20;100473.59;2090963;28;847;-60
2021/10/23 04:17:42;;;;;;;;;;;;;;;23.21;50.12;100482.06;2091345;28;779;-60
2021/10/23 04:18:42;;;;;;;;;;;;;;;23.32;50.30;100478.84;2091345;28;780;-60
2021/10/23 04:19:42;;;;;;;;;;;;;;;23.39;48.52;100480.28;2098902;28;1882;-59
2021/10/23 04:20:42;;;;;;;;;;;;;;;23.41;50.18;100488.31;2099095;28;831;-60
2021/10/23 04:21:43;;;;;;;;;;;;;;;23.37;49.55;100492.13;2091324;28;887;-61
2021/10/23 04:22:43;;;;;;;;;;;;;;;23.43;49.48;100488.22;2091281;28;810;-59
2021/10/23 04:23:44;;;;;;;;;;;;;;;23.44;49.30;100492.69;2091366;28;775;-60
2021/10/23 04:24:44;;;;;;;;;;;;;;;23.42;48.97;100495.47;2091224;28;1024;-61
2021/10/23 04:25:44;;;;;;;;;;;;;;;23.46;51.19;100494.38;2091222;28;791;-60
2021/10/23 04:26:44;;;;;;;;;;;;;;;23.49;49.65;100491.50;2091231;28;1035;-60
2021/10/23 04:27:44;;;;;;;;;;;;;;;23.56;50.83;100499.28;2091188;28;1025;-60
2021/10/23 04:28:45;;;;;;;;;;;;;;;23.52;48.88;100498.56;2098769;28;801;-60
2021/10/23 04:29:45;;;;;;;;;;;;;;;23.56;50.56;100501.97;2098914;28;1032;-61
2021/10/23 04:30:45;;;;;;;;;;;;;;;23.59;49.86;100508.13;2091247;28;980;-59
2021/10/23 04:31:45;;;;;;;;;;;;;;;23.61;49.81;100506.22;2091278;28;850;-59
2021/10/23 04:32:45;;;;;;;;;;;;;;;23.56;51.41;100501.97;2091389;28;902;-59
2021/10/23 04:33:46;;;;;;;;;;;;;;;23.55;49.69;100511.94;2091340;28;1036;-59
2021/10/23 04:34:46;;;;;;;;;;;;;;;23.69;49.97;100512.09;2091055;28;909;-59
2021/10/23 04:35:46;;;;;;;;;;;;;;;23.68;49.89;100518.47;2091306;28;846;-59
2021/10/23 04:36:46;;;;;;;;;;;;;;;23.68;48.00;100522.97;2091312;28;791;-59
2021/10/23 04:37:47;;;;;;;;;;;;;;;23.70;49.80;100526.47;2083775;28;1209;-60
2021/10/23 04:38:47;;;;;;;;;;;;;;;23.74;51.93;100530.78;2083008;28;758;-59
2021/10/23 04:39:47;;;;;;;;;;;;;;;23.72;52.55;100537.25;2082931;28;1961;-59
2021/10/23 04:40:47;;;;;;;;;;;;;;;23.72;51.31;100537.25;2083023;28;1001;-60
2021/10/23 04:41:47;;;;;;;;;;;;;;;23.78;52.43;100535.09;2083538;28;807;-59
2021/10/23 04:42:47;;;;;;;;;;;;;;;23.75;52.06;100537.94;2084427;28;872;-60
2021/10/23 04:43:48;;;;;;;;;;;;;;;23.72;52.47;100535.41;2084556;28;768;-60
2021/10/23 04:44:48;;;;;;;;;;;;;;;23.76;52.20;100533.44;2084576;28;916;-59
2021/10/23 04:45:48;;;;;;;;;;;;;;;23.73;53.37;100534.44;2084664;28;846;-59
2021/10/23 04:46:48;;;;;;;;;;;;;;;23.70;52.83;100545.41;2084497;28;867;-59
2021/10/23 04:47:48;;;;;;;;;;;;;;;23.70;52.10;100534.59;2084336;28;865;-59
2021/10/23 04:48:48;;;;;;;;;;;;;;;23.76;52.10;100539.69;2084442;28;902;-60
2021/10/23 04:49:49;;;;;;;;;;;;;;;23.76;51.80;100546.94;2084506;28;1098;-59
2021/10/23 04:50:49;;;;;;;;;;;;;;;23.73;50.23;100541.69;2084498;28;854;-60
2021/10/23 04:51:49;;;;;;;;;;;;;;;23.68;52.65;100544.63;2084554;28;1029;-60
2021/10/23 04:52:49;;;;;;;;;;;;;;;23.65;50.58;100544.78;2084468;28;910;-59
2021/10/23 04:53:50;;;;;;;;;;;;;;;23.68;48.97;100553.63;2084148;28;1191;-60
2021/10/23 04:54:50;;;;;;;;;;;;;;;23.69;48.83;100551.78;2084493;28;815;-60
2021/10/23 04:55:50;;;;;;;;;;;;;;;23.67;51.19;100551.88;2084437;28;823;-60
2021/10/23 04:56:51;;;;;;;;;;;;;;;23.62;51.17;100551.22;2084258;28;1161;-60
2021/10/23 04:57:51;;;;;;;;;;;;;;;23.61;50.82;100556.69;2084405;28;970;-60
2021/10/23 04:58:51;;;;;;;;;;;;;;;23.60;52.91;100553.13;2084334;28;823;-59
2021/10/23 04:59:51;;;;;;;;;;;;;;;23.68;51.25;100555.44;2083689;28;1981;-60
2021/10/23 05:00:51;;;;;;;;;;;;;;;23.67;51.39;100564.50;2075540;28;1367;-59
2021/10/23 05:01:52;;;;;;;;;;;;;;;23.72;49.77;100559.72;2083568;28;780;-59
2021/10/23 05:02:52;;;;;;;;;;;;;;;23.78;50.97;100564.84;2084459;28;993;-60
2021/10/23 05:03:52;;;;;;;;;;;;;;;23.77;50.85;100567.63;2084372;28;1036;-60
2021/10/23 05:04:52;;;;;;;;;;;;;;;23.90;49.50;100570.56;2084383;28;839;-60
2021/10/23 05:05:53;;;;;;;;;;;;;;;23.86;49.75;100567.13;2084335;28;985;-60
2021/10/23 05:06:53;;;;;;;;;;;;;;;23.78;51.30;100567.53;2084611;28;1111;-60
2021/10/23 05:07:54;;;;;;;;;;;;;;;23.79;51.51;100573.84;2092542;28;1089;-59
2021/10/23 05:08:54;;;;;;;;;;;;;;;23.86;49.08;100575.25;2092600;28;989;-60
2021/10/23 05:09:54;;;;;;;;;;;;;;;23.84;50.27;100580.75;2092576;28;1193;-60
2021/10/23 05:10:54;;;;;;;;;;;;;;;23.89;50.20;100583.19;2092461;28;1307;-60
2021/10/23 05:11:54;;;;;;;;;;;;;;;23.93;51.04;100592.06;2092303;28;788;-60
2021/10/23 05:12:54;;;;;;;;;;;;;;;23.90;50.40;100590.38;2092527;28;925;-60
2021/10/23 05:13:54;;;;;;;;;;;;;;;24.01;50.24;100591.66;2092514;28;970;-60
2021/10/23 05:14:55;;;;;;;;;;;;;;;24.01;51.63;100599.78;2092183;28;769;-60
2021/10/23 05:15:55;;;;;;;;;;;;;;;24.02;49.01;100599.72;2092474;28;865;-59
2021/10/23 05:16:55;;;;;;;;;;;;;;;24.03;50.06;100606.88;2092539;28;973;-61
2021/10/23 05:17:55;;;;;;;;;;;;;;;23.99;50.45;100608.00;2092455;28;826;-60
2021/10/23 05:18:55;;;;;;;;;;;;;;;23.96;50.82;100606.28;2092493;28;1034;-59